Forside
METAR-TAF:

METAR-TAF

Lufthavne :

Kirsch Municipal Airport

Sturgis, Michigan, USA

Breddekreds: 41-48-46N, længdekreds: 085-26-21W, højde: 282 m

Aktuelle vejr

Denne rapport blev lavet for 16 minutter siden, kl. 13:35 UTC
Vind 6 kt fra nordøst
Temperatur 3°C
Fugtighed 93%
Tryk 1016 hPa
Sigt: 16.1 km
Overskyet i en højde af 1200 ft

METAR: KIRS 311335Z AUTO 04006KT 10SM OVC012 03/02 A3001 RMK AO2 T00300015

Tid: 09:51 (13:51 UTC)


TAF: fraværende

Vejrobservationer og prognoser fra mere end 4000 lufthavne (METAR og TAF).

De gule og røde prikker repræsenterer de meteorologiske stationer.

Flyt musen over at se navnet på stationen.

Så klik over at se vejr observationer og prognoser.

At skifte det kort: Klik på de grønne knapper med et sort kors for at zoome ind; på den grønne knap med en bindestreg for at zoome ud; eller på de grønne pile for tilstødende kort.


METAR-TAF: